sensor_id;sensor_type;location;lat;lon;timestamp;pressure;altitude;pressure_sealevel;temperature;humidity
66486;BME280;53303;47.476;8.084;2023-12-20T00:01:00;95530.41;;;18.78;42.39
66486;BME280;53303;47.476;8.084;2023-12-20T00:03:26;95535.75;;;18.81;42.46
66486;BME280;53303;47.476;8.084;2023-12-20T00:05:51;95526.22;;;18.82;42.64
66486;BME280;53303;47.476;8.084;2023-12-20T00:08:19;95502.03;;;18.77;42.45
66486;BME280;53303;47.476;8.084;2023-12-20T00:10:47;95495.22;;;18.78;42.57
66486;BME280;53303;47.476;8.084;2023-12-20T00:13:13;95498.00;;;18.78;42.48
66486;BME280;53303;47.476;8.084;2023-12-20T00:15:38;95493.25;;;18.79;42.50
66486;BME280;53303;47.476;8.084;2023-12-20T00:18:04;95485.44;;;18.77;42.47
66486;BME280;53303;47.476;8.084;2023-12-20T00:20:29;95486.94;;;18.78;42.57
66486;BME280;53303;47.476;8.084;2023-12-20T00:22:57;95466.81;;;18.72;42.67
66486;BME280;53303;47.476;8.084;2023-12-20T00:25:25;95506.06;;;18.82;42.43
66486;BME280;53303;47.476;8.084;2023-12-20T00:27:51;95492.72;;;18.80;42.50
66486;BME280;53303;47.476;8.084;2023-12-20T00:30:16;95486.94;;;18.78;42.71
66486;BME280;53303;47.476;8.084;2023-12-20T00:32:42;95483.22;;;18.81;42.49
66486;BME280;53303;47.476;8.084;2023-12-20T00:35:13;95482.44;;;18.81;42.42
66486;BME280;53303;47.476;8.084;2023-12-20T00:37:38;95463.31;;;18.77;42.47
66486;BME280;53303;47.476;8.084;2023-12-20T00:40:04;95467.09;;;18.80;42.64
66486;BME280;53303;47.476;8.084;2023-12-20T00:42:30;95489.50;;;18.82;42.47
66486;BME280;53303;47.476;8.084;2023-12-20T00:44:55;95471.84;;;18.74;42.46
66486;BME280;53303;47.476;8.084;2023-12-20T00:47:21;95484.91;;;18.73;42.61
66486;BME280;53303;47.476;8.084;2023-12-20T00:49:51;95494.28;;;18.81;42.52
66486;BME280;53303;47.476;8.084;2023-12-20T00:52:19;95487.41;;;18.71;42.54
66486;BME280;53303;47.476;8.084;2023-12-20T00:54:45;95496.50;;;18.77;42.88
66486;BME280;53303;47.476;8.084;2023-12-20T00:57:10;95491.47;;;18.76;42.69
66486;BME280;53303;47.476;8.084;2023-12-20T00:59:36;95495.03;;;18.82;42.65
66486;BME280;53303;47.476;8.084;2023-12-20T01:02:04;95482.94;;;18.79;42.58
66486;BME280;53303;47.476;8.084;2023-12-20T01:04:29;95487.97;;;18.81;42.62
66486;BME280;53303;47.476;8.084;2023-12-20T01:06:54;95492.69;;;18.75;42.67
66486;BME280;53303;47.476;8.084;2023-12-20T01:09:20;95488.22;;;18.77;42.55
66486;BME280;53303;47.476;8.084;2023-12-20T01:11:50;95494.00;;;18.79;42.40
66486;BME280;53303;47.476;8.084;2023-12-20T01:14:16;95487.44;;;18.77;42.65
66486;BME280;53303;47.476;8.084;2023-12-20T01:16:43;95489.69;;;18.78;42.75
66486;BME280;53303;47.476;8.084;2023-12-20T01:19:09;95502.56;;;18.81;42.63
66486;BME280;53303;47.476;8.084;2023-12-20T01:21:37;95492.25;;;18.82;42.54
66486;BME280;53303;47.476;8.084;2023-12-20T01:24:02;95495.03;;;18.82;42.73
66486;BME280;53303;47.476;8.084;2023-12-20T01:26:30;95488.22;;;18.77;42.61
66486;BME280;53303;47.476;8.084;2023-12-20T01:28:55;95480.16;;;18.79;42.76
66486;BME280;53303;47.476;8.084;2023-12-20T01:31:23;95481.91;;;18.77;42.56
66486;BME280;53303;47.476;8.084;2023-12-20T01:33:48;95473.59;;;18.77;42.75
66486;BME280;53303;47.476;8.084;2023-12-20T01:36:14;95479.66;;;18.81;42.53
66486;BME280;53303;47.476;8.084;2023-12-20T01:38:39;95477.91;;;18.78;42.79
66486;BME280;53303;47.476;8.084;2023-12-20T01:41:05;95482.44;;;18.81;42.45
66486;BME280;53303;47.476;8.084;2023-12-20T01:43:30;95486.19;;;18.78;42.68
66486;BME280;53303;47.476;8.084;2023-12-20T01:45:57;95486.19;;;18.78;42.72
66486;BME280;53303;47.476;8.084;2023-12-20T01:48:24;95486.69;;;18.76;42.66
66486;BME280;53303;47.476;8.084;2023-12-20T01:50:50;95482.94;;;18.79;42.70
66486;BME280;53303;47.476;8.084;2023-12-20T01:53:20;95486.72;;;18.82;42.53
66486;BME280;53303;47.476;8.084;2023-12-20T01:55:47;95482.44;;;18.81;42.56
66486;BME280;53303;47.476;8.084;2023-12-20T01:58:13;95475.88;;;18.78;42.24
66486;BME280;53303;47.476;8.084;2023-12-20T02:00:39;95476.91;;;18.81;42.69
66486;BME280;53303;47.476;8.084;2023-12-20T02:03:05;95469.84;;;18.80;42.72
66486;BME280;53303;47.476;8.084;2023-12-20T02:05:35;95479.94;;;18.83;42.62
66486;BME280;53303;47.476;8.084;2023-12-20T02:08:00;95495.78;;;18.82;42.62
66486;BME280;53303;47.476;8.084;2023-12-20T02:10:26;95486.44;;;18.80;42.63
66486;BME280;53303;47.476;8.084;2023-12-20T02:12:52;95491.97;;;18.80;42.41
66486;BME280;53303;47.476;8.084;2023-12-20T02:15:17;95502.06;;;18.83;42.67
66486;BME280;53303;47.476;8.084;2023-12-20T02:17:43;95512.38;;;18.82;42.70
66486;BME280;53303;47.476;8.084;2023-12-20T02:20:09;95504.28;;;18.79;42.80
66486;BME280;53303;47.476;8.084;2023-12-20T02:22:35;95502.28;;;18.79;42.44
66486;BME280;53303;47.476;8.084;2023-12-20T02:25:00;95501.53;;;18.79;42.81
66486;BME280;53303;47.476;8.084;2023-12-20T02:27:27;95501.00;;;18.80;42.84
66486;BME280;53303;47.476;8.084;2023-12-20T02:29:53;95508.34;;;18.83;42.59
66486;BME280;53303;47.476;8.084;2023-12-20T02:32:18;95502.81;;;18.83;42.77
66486;BME280;53303;47.476;8.084;2023-12-20T02:34:47;95493.50;;;18.81;42.75
66486;BME280;53303;47.476;8.084;2023-12-20T02:37:12;95485.69;;;18.79;43.14
66486;BME280;53303;47.476;8.084;2023-12-20T02:39:38;95478.91;;;18.80;42.77
66486;BME280;53303;47.476;8.084;2023-12-20T02:42:03;95486.72;;;18.82;42.76
66486;BME280;53303;47.476;8.084;2023-12-20T02:44:29;95482.44;;;18.81;42.77
66486;BME280;53303;47.476;8.084;2023-12-20T02:46:54;95479.94;;;18.83;43.00
66486;BME280;53303;47.476;8.084;2023-12-20T02:49:19;95473.59;;;18.77;42.86
66486;BME280;53303;47.476;8.084;2023-12-20T02:51:47;95476.91;;;18.81;42.89
66486;BME280;53303;47.476;8.084;2023-12-20T02:54:13;95475.66;;;18.82;42.82
66486;BME280;53303;47.476;8.084;2023-12-20T02:56:38;95473.69;;;18.82;42.82
66486;BME280;53303;47.476;8.084;2023-12-20T02:59:06;95463.59;;;18.79;42.89
66486;BME280;53303;47.476;8.084;2023-12-20T03:01:33;95467.63;;;18.84;42.82
66486;BME280;53303;47.476;8.084;2023-12-20T03:03:59;95464.31;;;18.80;42.89
66486;BME280;53303;47.476;8.084;2023-12-20T03:06:24;95456.56;;;18.84;42.96
66486;BME280;53303;47.476;8.084;2023-12-20T03:08:52;95440.44;;;18.77;42.88
66486;BME280;53303;47.476;8.084;2023-12-20T03:11:18;95453.00;;;18.78;42.73
66486;BME280;53303;47.476;8.084;2023-12-20T03:13:45;95470.38;;;18.84;42.75
66486;BME280;53303;47.476;8.084;2023-12-20T03:16:12;95465.38;;;18.82;42.78
66486;BME280;53303;47.476;8.084;2023-12-20T03:18:38;95472.38;;;18.78;42.85
66486;BME280;53303;47.476;8.084;2023-12-20T03:21:06;95470.38;;;18.84;42.77
66486;BME280;53303;47.476;8.084;2023-12-20T03:23:32;95470.91;;;18.82;42.90
66486;BME280;53303;47.476;8.084;2023-12-20T03:26:00;95465.63;;;18.85;43.01
66486;BME280;53303;47.476;8.084;2023-12-20T03:28:29;95480.22;;;18.85;42.77
66486;BME280;53303;47.476;8.084;2023-12-20T03:30:54;95460.06;;;18.79;42.97
66486;BME280;53303;47.476;8.084;2023-12-20T03:33:20;95473.69;;;18.82;43.01
66486;BME280;53303;47.476;8.084;2023-12-20T03:35:45;95470.38;;;18.84;43.10
66486;BME280;53303;47.476;8.084;2023-12-20T03:38:11;95471.16;;;18.85;43.03
66486;BME280;53303;47.476;8.084;2023-12-20T03:40:36;95482.97;;;18.85;42.94
66486;BME280;53303;47.476;8.084;2023-12-20T03:43:02;95477.69;;;18.81;42.90
66486;BME280;53303;47.476;8.084;2023-12-20T03:45:29;95499.56;;;18.85;43.04
66486;BME280;53303;47.476;8.084;2023-12-20T03:47:57;95482.94;;;18.79;43.11
66486;BME280;53303;47.476;8.084;2023-12-20T03:50:28;95485.75;;;18.85;43.02
66486;BME280;53303;47.476;8.084;2023-12-20T03:52:56;95487.75;;;18.85;43.24
66486;BME280;53303;47.476;8.084;2023-12-20T03:55:24;95487.25;;;18.86;43.09
66486;BME280;53303;47.476;8.084;2023-12-20T03:57:49;95501.56;;;18.85;43.20
66486;BME280;53303;47.476;8.084;2023-12-20T04:00:15;95487.97;;;18.81;43.18
66486;BME280;53303;47.476;8.084;2023-12-20T04:02:42;95483.97;;;18.82;43.16
66486;BME280;53303;47.476;8.084;2023-12-20T04:05:09;95485.69;;;18.79;43.05
66486;BME280;53303;47.476;8.084;2023-12-20T04:07:35;95492.50;;;18.84;43.16
66486;BME280;53303;47.476;8.084;2023-12-20T04:10:00;95503.84;;;18.86;43.13
66486;BME280;53303;47.476;8.084;2023-12-20T04:12:28;95506.06;;;18.82;42.99
66486;BME280;53303;47.476;8.084;2023-12-20T04:14:53;95525.44;;;18.82;43.11
66486;BME280;53303;47.476;8.084;2023-12-20T04:17:19;95509.06;;;18.78;43.12
66486;BME280;53303;47.476;8.084;2023-12-20T04:19:45;95525.88;;;18.80;43.17
66486;BME280;53303;47.476;8.084;2023-12-20T04:22:10;95516.59;;;18.78;43.26
66486;BME280;53303;47.476;8.084;2023-12-20T04:24:35;95538.25;;;18.85;43.06
66486;BME280;53303;47.476;8.084;2023-12-20T04:27:01;95528.19;;;18.82;42.88
66486;BME280;53303;47.476;8.084;2023-12-20T04:29:27;95529.72;;;18.83;43.04
66486;BME280;53303;47.476;8.084;2023-12-20T04:31:52;95538.75;;;18.83;43.05
66486;BME280;53303;47.476;8.084;2023-12-20T04:34:18;95535.00;;;18.87;43.10
66486;BME280;53303;47.476;8.084;2023-12-20T04:36:43;95534.75;;;18.85;43.03
66486;BME280;53303;47.476;8.084;2023-12-20T04:39:09;95533.22;;;18.83;43.09
66486;BME280;53303;47.476;8.084;2023-12-20T04:41:35;95542.28;;;18.84;43.25
66486;BME280;53303;47.476;8.084;2023-12-20T04:44:00;95536.19;;;18.80;43.43
66486;BME280;53303;47.476;8.084;2023-12-20T04:46:26;95530.91;;;18.76;43.13
66486;BME280;53303;47.476;8.084;2023-12-20T04:48:51;95521.38;;;18.77;43.18
66486;BME280;53303;47.476;8.084;2023-12-20T04:51:17;95528.97;;;18.82;43.10
66486;BME280;53303;47.476;8.084;2023-12-20T04:53:45;95534.25;;;18.86;43.08
66486;BME280;53303;47.476;8.084;2023-12-20T04:56:10;95527.44;;;18.81;43.19
66486;BME280;53303;47.476;8.084;2023-12-20T04:58:35;95530.47;;;18.83;43.14
66486;BME280;53303;47.476;8.084;2023-12-20T05:01:03;95531.41;;;18.80;43.28
66486;BME280;53303;47.476;8.084;2023-12-20T05:03:30;95540.25;;;18.79;43.37
66486;BME280;53303;47.476;8.084;2023-12-20T05:05:58;95557.88;;;18.87;43.09
66486;BME280;53303;47.476;8.084;2023-12-20T05:08:24;95548.31;;;18.82;43.05
66486;BME280;53303;47.476;8.084;2023-12-20T05:10:54;95543.00;;;18.79;42.31
66486;BME280;53303;47.476;8.084;2023-12-20T05:13:19;95537.03;;;18.86;42.47
66486;BME280;53303;47.476;8.084;2023-12-20T05:15:45;95555.88;;;18.88;42.17
66486;BME280;53303;47.476;8.084;2023-12-20T05:18:10;95545.75;;;18.79;42.09
66486;BME280;53303;47.476;8.084;2023-12-20T05:20:38;95557.38;;;18.83;41.90
66486;BME280;53303;47.476;8.084;2023-12-20T05:23:03;95569.66;;;18.82;41.98
66486;BME280;53303;47.476;8.084;2023-12-20T05:25:31;95553.25;;;18.73;41.85
66486;BME280;53303;47.476;8.084;2023-12-20T05:27:57;95547.72;;;18.73;42.11
66486;BME280;53303;47.476;8.084;2023-12-20T05:30:22;95549.03;;;18.77;42.10
66486;BME280;53303;47.476;8.084;2023-12-20T05:32:48;95564.09;;;18.76;41.90
66486;BME280;53303;47.476;8.084;2023-12-20T05:35:15;95553.50;;;18.75;41.97
66486;BME280;53303;47.476;8.084;2023-12-20T05:37:41;95556.28;;;18.75;42.10
66486;BME280;53303;47.476;8.084;2023-12-20T05:40:08;95566.63;;;18.80;42.14
66486;BME280;53303;47.476;8.084;2023-12-20T05:42:36;95554.78;;;18.74;42.18
66486;BME280;53303;47.476;8.084;2023-12-20T05:45:03;95567.88;;;18.79;41.98
66486;BME280;53303;47.476;8.084;2023-12-20T05:47:31;95547.25;;;18.74;42.16
66486;BME280;53303;47.476;8.084;2023-12-20T05:49:59;95513.22;;;18.51;42.22
66486;BME280;53303;47.476;8.084;2023-12-20T05:52:24;95559.06;;;18.80;42.30
66486;BME280;53303;47.476;8.084;2023-12-20T05:54:50;95565.13;;;18.79;41.98
66486;BME280;53303;47.476;8.084;2023-12-20T05:57:17;95568.84;;;18.70;42.33
66486;BME280;53303;47.476;8.084;2023-12-20T05:59:43;95574.38;;;18.70;42.35
66486;BME280;53303;47.476;8.084;2023-12-20T06:02:08;95584.97;;;18.77;42.65
66486;BME280;53303;47.476;8.084;2023-12-20T06:04:33;95574.91;;;18.80;42.48
66486;BME280;53303;47.476;8.084;2023-12-20T06:06:59;95585.22;;;18.79;42.74
66486;BME280;53303;47.476;8.084;2023-12-20T06:09:26;95582.69;;;18.76;42.85
66486;BME280;53303;47.476;8.084;2023-12-20T06:11:51;95584.97;;;18.77;42.61
66486;BME280;53303;47.476;8.084;2023-12-20T06:14:19;95583.66;;;18.73;42.51
66486;BME280;53303;47.476;8.084;2023-12-20T06:16:45;95582.94;;;18.78;42.71
66486;BME280;53303;47.476;8.084;2023-12-20T06:19:11;95563.28;;;18.64;42.71
66486;BME280;53303;47.476;8.084;2023-12-20T06:21:38;95569.84;;;18.73;42.81
66486;BME280;53303;47.476;8.084;2023-12-20T06:24:04;95581.69;;;18.79;43.14
66486;BME280;53303;47.476;8.084;2023-12-20T06:26:35;95577.41;;;18.78;42.79
66486;BME280;53303;47.476;8.084;2023-12-20T06:29:00;95590.75;;;18.79;42.87
66486;BME280;53303;47.476;8.084;2023-12-20T06:31:25;95598.53;;;18.81;42.62
66486;BME280;53303;47.476;8.084;2023-12-20T06:33:51;95574.09;;;18.68;42.86
66486;BME280;53303;47.476;8.084;2023-12-20T06:36:22;95591.47;;;18.74;42.88
66486;BME280;53303;47.476;8.084;2023-12-20T06:38:48;95592.47;;;18.77;43.06
66486;BME280;53303;47.476;8.084;2023-12-20T06:41:13;95597.78;;;18.80;42.83
66486;BME280;53303;47.476;8.084;2023-12-20T06:43:44;95606.38;;;18.82;42.84
66486;BME280;53303;47.476;8.084;2023-12-20T06:46:12;95605.31;;;18.80;43.04
66486;BME280;53303;47.476;8.084;2023-12-20T06:48:39;95615.91;;;18.81;42.96
66486;BME280;53303;47.476;8.084;2023-12-20T06:51:05;95615.91;;;18.81;42.89
66486;BME280;53303;47.476;8.084;2023-12-20T06:53:31;95604.56;;;18.79;42.91
66486;BME280;53303;47.476;8.084;2023-12-20T06:55:58;95609.16;;;18.82;42.84
66486;BME280;53303;47.476;8.084;2023-12-20T06:58:24;95616.91;;;18.84;42.94
66486;BME280;53303;47.476;8.084;2023-12-20T07:00:50;95628.25;;;18.86;42.95
66486;BME280;53303;47.476;8.084;2023-12-20T07:03:16;95622.66;;;18.80;43.10
66486;BME280;53303;47.476;8.084;2023-12-20T07:05:46;95626.47;;;18.83;43.04
66486;BME280;53303;47.476;8.084;2023-12-20T07:08:12;95615.63;;;18.79;42.97
66486;BME280;53303;47.476;8.084;2023-12-20T07:10:43;95589.38;;;18.58;43.10
66486;BME280;53303;47.476;8.084;2023-12-20T07:13:10;95616.13;;;18.78;43.00
66486;BME280;53303;47.476;8.084;2023-12-20T07:15:37;95615.09;;;18.75;42.93
66486;BME280;53303;47.476;8.084;2023-12-20T07:18:03;95628.69;;;18.79;43.06
66486;BME280;53303;47.476;8.084;2023-12-20T07:20:30;95640.78;;;18.81;43.10
66486;BME280;53303;47.476;8.084;2023-12-20T07:22:55;95636.78;;;18.82;42.71
66486;BME280;53303;47.476;8.084;2023-12-20T07:25:21;95642.78;;;18.81;43.16
66486;BME280;53303;47.476;8.084;2023-12-20T07:27:46;95636.69;;;18.77;42.93
66486;BME280;53303;47.476;8.084;2023-12-20T07:30:12;95651.34;;;18.83;42.96
66486;BME280;53303;47.476;8.084;2023-12-20T07:32:37;95653.38;;;18.82;43.11
66486;BME280;53303;47.476;8.084;2023-12-20T07:35:03;95647.75;;;18.77;43.09
66486;BME280;53303;47.476;8.084;2023-12-20T07:37:28;95657.84;;;18.80;42.97
66486;BME280;53303;47.476;8.084;2023-12-20T07:39:56;95657.38;;;18.81;43.12
66486;BME280;53303;47.476;8.084;2023-12-20T07:42:21;95660.59;;;18.80;43.05
66486;BME280;53303;47.476;8.084;2023-12-20T07:44:47;95656.81;;;18.77;43.17
66486;BME280;53303;47.476;8.084;2023-12-20T07:47:12;95665.38;;;18.79;42.97
66486;BME280;53303;47.476;8.084;2023-12-20T07:49:42;95653.28;;;18.77;43.19
66486;BME280;53303;47.476;8.084;2023-12-20T07:52:07;95646.75;;;18.74;43.10
66486;BME280;53303;47.476;8.084;2023-12-20T07:54:33;95658.59;;;18.80;43.02
66486;BME280;53303;47.476;8.084;2023-12-20T07:57:01;95670.97;;;18.85;43.24
66486;BME280;53303;47.476;8.084;2023-12-20T07:59:28;95669.66;;;18.80;43.10
66486;BME280;53303;47.476;8.084;2023-12-20T08:01:56;95671.94;;;18.82;43.18
66486;BME280;53303;47.476;8.084;2023-12-20T08:04:22;95678.47;;;18.79;43.26
66486;BME280;53303;47.476;8.084;2023-12-20T08:06:47;95698.88;;;18.87;42.81
66486;BME280;53303;47.476;8.084;2023-12-20T08:09:12;95673.66;;;18.74;43.04
66486;BME280;53303;47.476;8.084;2023-12-20T08:11:47;95688.59;;;18.88;43.02
66486;BME280;53303;47.476;8.084;2023-12-20T08:14:15;95688.00;;;18.78;43.25
66486;BME280;53303;47.476;8.084;2023-12-20T08:16:43;95692.13;;;18.88;43.12
66486;BME280;53303;47.476;8.084;2023-12-20T08:19:08;95683.47;;;18.80;42.99
66486;BME280;53303;47.476;8.084;2023-12-20T08:21:34;95692.81;;;18.83;43.10
66486;BME280;53303;47.476;8.084;2023-12-20T08:24:02;95696.88;;;18.88;42.98
66486;BME280;53303;47.476;8.084;2023-12-20T08:26:28;95693.09;;;18.85;42.98
66486;BME280;53303;47.476;8.084;2023-12-20T08:28:53;95685.22;;;18.78;42.87
66486;BME280;53303;47.476;8.084;2023-12-20T08:31:21;95687.31;;;18.83;43.13
66486;BME280;53303;47.476;8.084;2023-12-20T08:33:47;95685.84;;;18.88;43.06
66486;BME280;53303;47.476;8.084;2023-12-20T08:36:13;95691.31;;;18.82;42.99
66486;BME280;53303;47.476;8.084;2023-12-20T08:38:41;95701.66;;;18.87;43.06
66486;BME280;53303;47.476;8.084;2023-12-20T08:41:07;95687.78;;;18.81;43.49
66486;BME280;53303;47.476;8.084;2023-12-20T08:43:34;95695.59;;;18.83;42.68
66486;BME280;53303;47.476;8.084;2023-12-20T08:46:01;95698.34;;;18.83;43.00
66486;BME280;53303;47.476;8.084;2023-12-20T08:48:26;95714.22;;;18.88;43.04
66486;BME280;53303;47.476;8.084;2023-12-20T08:50:51;95697.88;;;18.85;43.32
66486;BME280;53303;47.476;8.084;2023-12-20T08:53:18;95686.19;;;18.75;42.89
66486;BME280;53303;47.476;8.084;2023-12-20T08:55:46;95714.22;;;18.88;43.14
66486;BME280;53303;47.476;8.084;2023-12-20T08:58:12;95712.22;;;18.89;43.09
66486;BME280;53303;47.476;8.084;2023-12-20T09:00:40;95684.44;;;18.72;43.08
66486;BME280;53303;47.476;8.084;2023-12-20T09:03:05;95712.22;;;18.89;43.04
66486;BME280;53303;47.476;8.084;2023-12-20T09:05:31;95711.19;;;18.86;42.87
66486;BME280;53303;47.476;8.084;2023-12-20T09:07:56;95707.16;;;18.87;43.05
66486;BME280;53303;47.476;8.084;2023-12-20T09:10:22;95694.53;;;18.80;42.97
66486;BME280;53303;47.476;8.084;2023-12-20T09:12:52;95715.72;;;18.89;42.81
66486;BME280;53303;47.476;8.084;2023-12-20T09:15:22;95705.38;;;18.84;43.14
66486;BME280;53303;47.476;8.084;2023-12-20T09:17:48;95719.28;;;18.90;43.01
66486;BME280;53303;47.476;8.084;2023-12-20T09:20:13;95725.03;;;18.86;43.16
66486;BME280;53303;47.476;8.084;2023-12-20T09:22:41;95723.28;;;18.89;43.14
66486;BME280;53303;47.476;8.084;2023-12-20T09:25:07;95714.47;;;18.85;42.98
66486;BME280;53303;47.476;8.084;2023-12-20T09:27:33;95693.25;;;18.76;42.91
66486;BME280;53303;47.476;8.084;2023-12-20T09:30:01;95728.31;;;18.90;43.27
66486;BME280;53303;47.476;8.084;2023-12-20T09:32:28;95711.44;;;18.82;43.10
66486;BME280;53303;47.476;8.084;2023-12-20T09:34:57;95718.22;;;18.87;42.91
66486;BME280;53303;47.476;8.084;2023-12-20T09:37:25;95733.84;;;18.90;43.07
66486;BME280;53303;47.476;8.084;2023-12-20T09:39:51;95719.75;;;18.88;43.27
66486;BME280;53303;47.476;8.084;2023-12-20T09:42:24;95723.00;;;18.87;43.08
66486;BME280;53303;47.476;8.084;2023-12-20T09:44:52;95732.31;;;18.89;42.93
66486;BME280;53303;47.476;8.084;2023-12-20T09:47:23;95721.91;;;18.78;42.99
66486;BME280;53303;47.476;8.084;2023-12-20T09:49:50;95720.19;;;18.81;43.00
66486;BME280;53303;47.476;8.084;2023-12-20T09:52:16;95737.09;;;18.89;43.15
66486;BME280;53303;47.476;8.084;2023-12-20T09:54:48;95736.34;;;18.88;42.95
66486;BME280;53303;47.476;8.084;2023-12-20T09:57:14;95734.56;;;18.85;43.16
66486;BME280;53303;47.476;8.084;2023-12-20T09:59:40;95757.50;;;18.91;43.07
66486;BME280;53303;47.476;8.084;2023-12-20T10:02:12;95753.69;;;18.89;43.18
66486;BME280;53303;47.476;8.084;2023-12-20T10:04:47;95758.47;;;18.88;43.02
66486;BME280;53303;47.476;8.084;2023-12-20T10:07:15;95753.94;;;18.91;43.13
66486;BME280;53303;47.476;8.084;2023-12-20T10:09:41;95744.38;;;18.86;42.97
66486;BME280;53303;47.476;8.084;2023-12-20T10:12:07;95728.78;;;18.83;42.91
66486;BME280;53303;47.476;8.084;2023-12-20T10:14:33;95746.44;;;18.91;43.13
66486;BME280;53303;47.476;8.084;2023-12-20T10:17:03;95730.56;;;18.86;42.99
66486;BME280;53303;47.476;8.084;2023-12-20T10:19:28;95738.13;;;18.91;43.06
66486;BME280;53303;47.476;8.084;2023-12-20T10:21:54;95731.09;;;18.90;43.06
66486;BME280;53303;47.476;8.084;2023-12-20T10:24:20;95739.63;;;18.92;43.25
66486;BME280;53303;47.476;8.084;2023-12-20T10:26:46;95733.84;;;18.90;42.97
66486;BME280;53303;47.476;8.084;2023-12-20T10:29:11;95726.56;;;18.93;43.17
66486;BME280;53303;47.476;8.084;2023-12-20T10:31:36;95725.78;;;18.87;43.06
66486;BME280;53303;47.476;8.084;2023-12-20T10:34:07;95719.75;;;18.88;42.89
66486;BME280;53303;47.476;8.084;2023-12-20T10:36:32;95714.25;;;18.94;42.98
66486;BME280;53303;47.476;8.084;2023-12-20T10:38:59;95700.41;;;18.88;43.02
66486;BME280;53303;47.476;8.084;2023-12-20T10:41:25;95707.50;;;18.95;43.01
66486;BME280;53303;47.476;8.084;2023-12-20T10:43:52;95707.50;;;18.95;42.70
66486;BME280;53303;47.476;8.084;2023-12-20T10:46:19;95708.72;;;18.94;42.88
66486;BME280;53303;47.476;8.084;2023-12-20T10:48:45;95694.38;;;18.90;42.87
66486;BME280;53303;47.476;8.084;2023-12-20T10:51:13;95693.59;;;18.89;42.93
66486;BME280;53303;47.476;8.084;2023-12-20T10:53:48;95717.28;;;18.96;43.01
66486;BME280;53303;47.476;8.084;2023-12-20T10:56:19;95703.47;;;18.96;43.02
66486;BME280;53303;47.476;8.084;2023-12-20T10:58:45;95679.75;;;18.83;42.90
66486;BME280;53303;47.476;8.084;2023-12-20T11:01:16;95700.69;;;18.96;42.92
66486;BME280;53303;47.476;8.084;2023-12-20T11:03:52;95686.63;;;18.94;42.92
66486;BME280;53303;47.476;8.084;2023-12-20T11:06:37;95670.47;;;18.87;42.99
66486;BME280;53303;47.476;8.084;2023-12-20T11:09:29;95667.94;;;18.83;42.98
66486;BME280;53303;47.476;8.084;2023-12-20T11:12:07;95675.56;;;18.94;42.98
66486;BME280;53303;47.476;8.084;2023-12-20T11:14:38;95682.72;;;18.80;43.12
66486;BME280;53303;47.476;8.084;2023-12-20T11:17:14;95689.31;;;18.82;42.98
66486;BME280;53303;47.476;8.084;2023-12-20T11:22:29;95686.59;;;18.88;43.09
66486;BME280;53303;47.476;8.084;2023-12-20T11:25:10;95687.34;;;18.89;42.86
66486;BME280;53303;47.476;8.084;2023-12-20T11:27:40;95687.84;;;18.93;43.08
66486;BME280;53303;47.476;8.084;2023-12-20T11:30:09;95680.25;;;18.82;42.91
66486;BME280;53303;47.476;8.084;2023-12-20T11:32:36;95681.81;;;18.89;42.92
66486;BME280;53303;47.476;8.084;2023-12-20T11:35:22;95676.50;;;18.85;42.81
66486;BME280;53303;47.476;8.084;2023-12-20T11:37:49;95675.06;;;18.95;42.70
66486;BME280;53303;47.476;8.084;2023-12-20T11:40:19;95670.25;;;18.90;42.85
66486;BME280;53303;47.476;8.084;2023-12-20T11:42:53;95700.47;;;18.99;42.73
66486;BME280;53303;47.476;8.084;2023-12-20T11:45:23;95692.44;;;19.01;42.68
66486;BME280;53303;47.476;8.084;2023-12-20T11:47:51;95682.09;;;18.96;42.63
66486;BME280;53303;47.476;8.084;2023-12-20T11:50:17;95683.13;;;18.99;42.76
66486;BME280;53303;47.476;8.084;2023-12-20T11:52:43;95686.91;;;19.01;42.62
66486;BME280;53303;47.476;8.084;2023-12-20T11:55:11;95684.69;;;19.06;42.75
66486;BME280;53303;47.476;8.084;2023-12-20T11:57:40;95682.91;;;19.02;42.92
66486;BME280;53303;47.476;8.084;2023-12-20T12:00:08;95680.13;;;19.02;42.83
66486;BME280;53303;47.476;8.084;2023-12-20T12:02:33;95685.91;;;19.05;42.52
66486;BME280;53303;47.476;8.084;2023-12-20T12:04:59;95687.94;;;19.04;42.51
66486;BME280;53303;47.476;8.084;2023-12-20T12:07:25;95682.16;;;19.08;42.56
66486;BME280;53303;47.476;8.084;2023-12-20T12:09:51;95669.56;;;19.01;42.61
66486;BME280;53303;47.476;8.084;2023-12-20T12:12:17;95661.06;;;19.10;42.54
66486;BME280;53303;47.476;8.084;2023-12-20T12:14:45;95658.03;;;19.08;42.56
66486;BME280;53303;47.476;8.084;2023-12-20T12:17:14;95666.81;;;19.07;42.81
66486;BME280;53303;47.476;8.084;2023-12-20T12:19:41;95669.34;;;19.10;42.56
66486;BME280;53303;47.476;8.084;2023-12-20T12:22:08;95667.84;;;19.09;42.68
66486;BME280;53303;47.476;8.084;2023-12-20T12:24:48;95668.34;;;19.08;42.64
66486;BME280;53303;47.476;8.084;2023-12-20T12:27:14;95672.84;;;19.05;42.76
66486;BME280;53303;47.476;8.084;2023-12-20T12:30:01;95697.75;;;19.11;42.53
66486;BME280;53303;47.476;8.084;2023-12-20T12:32:27;95685.94;;;19.10;42.80
66486;BME280;53303;47.476;8.084;2023-12-20T12:34:53;95682.44;;;19.10;42.50
66486;BME280;53303;47.476;8.084;2023-12-20T12:37:18;95683.66;;;19.09;42.58
66486;BME280;53303;47.476;8.084;2023-12-20T12:39:44;95693.03;;;19.17;42.40
66486;BME280;53303;47.476;8.084;2023-12-20T12:42:11;95678.69;;;19.13;42.52
66486;BME280;53303;47.476;8.084;2023-12-20T12:44:36;95700.09;;;19.18;42.59
66486;BME280;53303;47.476;8.084;2023-12-20T12:47:02;95691.25;;;19.14;42.54
66486;BME280;53303;47.476;8.084;2023-12-20T12:49:28;95707.88;;;19.19;42.50
66486;BME280;53303;47.476;8.084;2023-12-20T12:51:54;95711.91;;;19.18;42.58
66486;BME280;53303;47.476;8.084;2023-12-20T12:54:23;95703.84;;;19.15;42.85
66486;BME280;53303;47.476;8.084;2023-12-20T12:56:49;95707.84;;;19.14;42.63
66486;BME280;53303;47.476;8.084;2023-12-20T12:59:16;95715.66;;;19.15;42.70
66486;BME280;53303;47.476;8.084;2023-12-20T13:01:41;95709.09;;;19.13;42.62